Northway, Alaska
Current Conditions -  °F | °C
As of 2:53 PM on Friday 24 Oct 2014 (Local Time) from PAOR Reporting Station
Broken Clouds Broken Clouds  
Wind Chill: 19°   Ceiling: 1400
Heat Index: 26°   Visibility: 10mi
Dew Point: 20°   Wind: 6mph
Humidity: 78%   Direction: 120°ESE
Pressure: 29.8"   Gusts: NA
Location:  62.95°N, 141.93°W
Report Text: PAOR 242253Z 12005KT 10SM BKN014 BKN075 M03/M07 A2980 RMK AO2 SLP126 SH DSNT SW T10331067
Loading
Personal Weather Stations






























Interactive Weather Map New forecast layout! Learn more

10-Day Weather Forecast

Advertisements
Track Severe Weather on mobile